createdAt,value
2018-08-23T00:01:39.344Z,7.10
2018-08-23T00:03:43.525Z,7.10
2018-08-23T00:05:53.905Z,10.50
2018-08-23T00:08:09.170Z,8.03
2018-08-23T00:10:13.437Z,7.60
2018-08-23T00:12:17.734Z,7.90
2018-08-23T00:14:21.944Z,6.73
2018-08-23T00:16:38.384Z,7.53
2018-08-23T00:18:42.631Z,7.27
2018-08-23T00:20:46.824Z,8.57
2018-08-23T00:22:51.055Z,8.00
2018-08-23T00:24:55.378Z,7.73
2018-08-23T00:27:00.332Z,8.53
2018-08-23T00:29:05.682Z,7.47
2018-08-23T00:31:09.852Z,7.50
2018-08-23T00:33:14.067Z,7.53
2018-08-23T00:35:20.543Z,8.30
2018-08-23T00:37:24.722Z,7.40
2018-08-23T00:39:29.662Z,7.90
2018-08-23T00:41:33.871Z,7.27
2018-08-23T00:43:38.166Z,6.33
2018-08-23T00:45:42.346Z,6.70
2018-08-23T00:47:46.515Z,7.27
2018-08-23T00:49:50.738Z,7.60
2018-08-23T00:51:54.892Z,7.90
2018-08-23T00:54:04.945Z,8.00
2018-08-23T00:56:20.470Z,9.27
2018-08-23T00:58:24.631Z,9.53
2018-08-23T01:00:29.319Z,9.10
2018-08-23T01:02:33.541Z,10.17
2018-08-23T01:04:41.243Z,8.80
2018-08-23T01:06:46.036Z,8.53
2018-08-23T01:08:50.312Z,6.43
2018-08-23T01:10:54.658Z,7.40
2018-08-23T01:13:03.767Z,7.70
2018-08-23T01:15:08.101Z,7.37
2018-08-23T01:17:17.117Z,8.80
2018-08-23T01:19:26.551Z,12.27
2018-08-23T01:21:32.580Z,9.40
2018-08-23T01:23:37.490Z,9.07
2018-08-23T01:25:43.503Z,7.73
2018-08-23T01:27:47.764Z,10.37
2018-08-23T01:29:52.054Z,8.77
2018-08-23T01:32:15.852Z,9.47
2018-08-23T01:34:20.097Z,8.90
2018-08-23T01:36:32.108Z,8.30
2018-08-23T01:38:36.322Z,8.77
2018-08-23T01:40:40.534Z,9.10
2018-08-23T01:42:44.786Z,8.77
2018-08-23T01:44:48.947Z,8.33
2018-08-23T01:47:00.605Z,7.40
2018-08-23T01:49:06.612Z,8.60
2018-08-23T01:51:10.839Z,9.30
2018-08-23T01:53:15.106Z,9.67
2018-08-23T01:55:20.019Z,13.97
2018-08-23T01:57:29.489Z,16.03
2018-08-23T01:59:33.667Z,18.70
2018-08-23T02:01:37.910Z,16.10
2018-08-23T02:03:42.308Z,14.47
2018-08-23T02:05:46.506Z,14.77
2018-08-23T02:07:50.654Z,14.67
2018-08-23T02:09:54.857Z,14.67
2018-08-23T02:11:59.131Z,14.07
2018-08-23T02:14:03.430Z,12.80
2018-08-23T02:16:07.628Z,14.27
2018-08-23T02:18:11.872Z,14.17
2018-08-23T02:20:16.087Z,12.73
2018-08-23T02:22:20.303Z,12.83
2018-08-23T02:24:29.080Z,12.07
2018-08-23T02:26:33.313Z,10.67
2018-08-23T02:28:38.161Z,11.27
2018-08-23T02:30:58.877Z,11.97
2018-08-23T02:33:03.256Z,12.80
2018-08-23T02:35:07.486Z,17.33
2018-08-23T02:37:13.652Z,17.40
2018-08-23T02:39:17.962Z,13.83
2018-08-23T02:41:22.185Z,11.77
2018-08-23T02:43:26.457Z,11.40
2018-08-23T02:45:39.051Z,12.30
2018-08-23T02:47:43.624Z,11.87
2018-08-23T02:49:47.918Z,11.60
2018-08-23T02:51:52.767Z,13.10
2018-08-23T02:53:57.110Z,13.93
2018-08-23T02:56:06.378Z,14.60
2018-08-23T02:58:10.561Z,15.33
2018-08-23T03:00:14.821Z,18.10
2018-08-23T03:02:19.068Z,15.87
2018-08-23T03:04:26.180Z,16.43
2018-08-23T03:06:34.823Z,15.67
2018-08-23T03:08:44.523Z,14.97
2018-08-23T03:10:48.726Z,17.03
2018-08-23T03:12:53.154Z,14.97
2018-08-23T03:14:57.282Z,15.53
2018-08-23T03:17:39.727Z,14.17
2018-08-23T03:20:04.377Z,14.67
2018-08-23T03:22:08.638Z,15.03
2018-08-23T03:24:13.022Z,15.47
2018-08-23T03:26:17.230Z,14.47
2018-08-23T03:28:21.443Z,14.23
2018-08-23T03:30:25.770Z,16.73
2018-08-23T03:32:30.278Z,18.07
2018-08-23T03:34:34.586Z,16.27
2018-08-23T03:36:38.748Z,16.23
2018-08-23T03:38:42.998Z,18.37
2018-08-23T03:40:47.201Z,21.80
2018-08-23T03:42:51.390Z,20.83
2018-08-23T03:44:56.531Z,22.60
2018-08-23T03:47:00.904Z,20.47
2018-08-23T03:49:07.038Z,21.27
2018-08-23T03:51:11.243Z,22.17
2018-08-23T03:53:15.416Z,24.57
2018-08-23T03:55:21.007Z,24.43
2018-08-23T03:57:29.234Z,22.13
2018-08-23T03:59:33.827Z,26.77
2018-08-23T04:01:38.004Z,24.60
2018-08-23T04:03:42.361Z,24.47
2018-08-23T04:05:46.570Z,24.53
2018-08-23T04:07:50.750Z,22.80
2018-08-23T04:09:54.994Z,25.67
2018-08-23T04:11:59.289Z,22.77
2018-08-23T04:14:03.627Z,27.17
2018-08-23T04:16:07.936Z,25.93
2018-08-23T04:18:15.500Z,25.10
2018-08-23T04:20:19.807Z,23.57
2018-08-23T04:22:24.047Z,24.63
2018-08-23T04:24:28.239Z,20.73
2018-08-23T04:26:32.385Z,21.20
2018-08-23T04:28:36.583Z,25.90
2018-08-23T04:30:40.774Z,23.90
2018-08-23T04:32:48.124Z,19.60
2018-08-23T04:34:52.346Z,20.73
2018-08-23T04:36:56.487Z,18.00
2018-08-23T04:39:06.904Z,18.97
2018-08-23T04:41:13.717Z,16.40
2018-08-23T04:43:17.935Z,19.10
2018-08-23T04:45:28.139Z,21.07
2018-08-23T04:47:32.330Z,21.30
2018-08-23T04:49:36.501Z,19.03
2018-08-23T04:51:41.643Z,17.00
2018-08-23T04:53:46.730Z,16.47
2018-08-23T04:55:50.954Z,15.93
2018-08-23T04:57:56.403Z,17.23
2018-08-23T05:00:01.356Z,17.60
2018-08-23T05:02:05.535Z,17.90
2018-08-23T05:04:09.802Z,19.33
2018-08-23T05:06:13.994Z,18.40
2018-08-23T05:08:18.221Z,16.83
2018-08-23T05:10:22.445Z,16.37
2018-08-23T05:12:27.397Z,16.37
2018-08-23T05:14:31.615Z,17.70
2018-08-23T05:16:35.871Z,16.90
2018-08-23T05:18:40.071Z,18.10
2018-08-23T05:20:44.283Z,17.37
2018-08-23T05:22:53.837Z,17.60
2018-08-23T05:25:03.078Z,18.60
2018-08-23T05:27:07.258Z,15.73
2018-08-23T05:29:11.496Z,18.13
2018-08-23T05:31:15.739Z,17.30
2018-08-23T05:33:21.917Z,17.07
2018-08-23T05:35:26.147Z,17.13
2018-08-23T05:37:30.334Z,15.70
2018-08-23T05:39:45.739Z,16.77
2018-08-23T05:41:51.493Z,16.87
2018-08-23T05:44:09.560Z,16.53
2018-08-23T05:46:13.786Z,18.87
2018-08-23T05:48:36.585Z,19.70
2018-08-23T05:50:40.762Z,19.63
2018-08-23T05:52:45.153Z,19.83
2018-08-23T05:54:49.326Z,21.00
2018-08-23T05:56:53.581Z,25.07
2018-08-23T05:59:01.863Z,22.23
2018-08-23T06:01:06.138Z,23.70
2018-08-23T06:03:10.461Z,23.27
2018-08-23T06:05:14.658Z,22.70
2018-08-23T06:07:18.870Z,24.57
2018-08-23T06:09:23.077Z,23.53
2018-08-23T06:11:27.296Z,23.63
2018-08-23T06:13:32.599Z,23.03
2018-08-23T06:15:41.761Z,26.20
2018-08-23T06:17:45.904Z,23.07
2018-08-23T06:19:50.051Z,19.90
2018-08-23T06:21:54.214Z,15.00
2018-08-23T06:24:03.640Z,24.50
2018-08-23T06:26:07.790Z,24.23
2018-08-23T06:28:21.778Z,17.33
2018-08-23T06:30:26.605Z,25.83
2018-08-23T06:32:33.760Z,25.13
2018-08-23T06:34:52.885Z,26.47
2018-08-23T06:36:57.098Z,27.20
2018-08-23T06:39:01.407Z,27.00
2018-08-23T06:41:07.290Z,26.93
2018-08-23T06:43:11.433Z,24.73
2018-08-23T06:45:15.706Z,28.97
2018-08-23T06:47:22.310Z,27.27
2018-08-23T06:49:26.600Z,12.97
2018-08-23T06:51:30.845Z,17.73
2018-08-23T06:53:52.634Z,29.40
2018-08-23T06:55:56.833Z,25.90
2018-08-23T06:58:02.052Z,28.83
2018-08-23T07:00:06.815Z,30.95
2018-08-23T07:02:11.102Z,25.27
2018-08-23T07:04:15.442Z,26.63
2018-08-23T07:06:20.476Z,31.27
2018-08-23T07:08:24.759Z,29.63
2018-08-23T07:10:28.928Z,26.83
2018-08-23T07:12:33.239Z,27.73
2018-08-23T07:14:37.524Z,32.80
2018-08-23T07:16:43.030Z,34.00
2018-08-23T07:18:47.266Z,24.40
2018-08-23T07:20:51.475Z,32.90
2018-08-23T07:22:55.710Z,34.93
2018-08-23T07:24:59.968Z,26.90
2018-08-23T07:27:04.353Z,34.00
2018-08-23T07:29:08.550Z,36.13
2018-08-23T07:31:12.743Z,34.83
2018-08-23T07:33:16.997Z,26.33
2018-08-23T07:35:21.710Z,31.47
2018-08-23T07:37:26.034Z,31.83
2018-08-23T07:39:30.278Z,33.67
2018-08-23T07:41:34.515Z,30.87
2018-08-23T07:43:49.477Z,31.43
2018-08-23T07:45:55.573Z,30.77
2018-08-23T07:47:59.836Z,30.83
2018-08-23T07:50:04.134Z,30.40
2018-08-23T07:52:08.398Z,30.73
2018-08-23T07:54:19.346Z,30.17
2018-08-23T07:56:27.667Z,28.77
2018-08-23T07:58:31.821Z,30.97
2018-08-23T08:00:40.953Z,30.10
2018-08-23T08:02:45.187Z,31.73
2018-08-23T08:04:49.404Z,22.13
2018-08-23T08:06:53.621Z,26.97
2018-08-23T08:08:59.379Z,30.87
2018-08-23T08:11:03.725Z,32.23
2018-08-23T08:13:07.903Z,24.17
2018-08-23T08:15:12.796Z,32.70
2018-08-23T08:17:21.834Z,31.30
2018-08-23T08:19:26.185Z,30.43
2018-08-23T08:21:30.543Z,31.27
2018-08-23T08:23:34.790Z,31.00
2018-08-23T08:25:38.992Z,24.03
2018-08-23T08:27:43.235Z,31.63
2018-08-23T08:29:47.483Z,29.67
2018-08-23T08:31:51.801Z,29.27
2018-08-23T08:33:59.156Z,28.03
2018-08-23T08:36:04.239Z,31.37
2018-08-23T08:38:08.383Z,30.80
2018-08-23T08:40:18.498Z,32.33
2018-08-23T08:42:30.161Z,32.63
2018-08-23T08:44:34.435Z,32.73
2018-08-23T08:46:38.656Z,31.37
2018-08-23T08:48:42.930Z,30.37
2018-08-23T08:51:01.806Z,30.10
2018-08-23T08:53:06.122Z,29.77
2018-08-23T08:55:12.971Z,32.00
2018-08-23T08:57:17.275Z,32.00
2018-08-23T08:59:21.582Z,32.23
2018-08-23T09:01:25.810Z,28.57
2018-08-23T09:03:33.505Z,32.30
2018-08-23T09:05:37.700Z,28.40
2018-08-23T09:07:44.111Z,34.00
2018-08-23T09:09:48.396Z,32.17
2018-08-23T09:11:52.576Z,33.27
2018-08-23T09:13:58.319Z,32.70
2018-08-23T09:16:06.960Z,33.80
2018-08-23T09:18:11.195Z,31.27
2018-08-23T09:20:16.639Z,29.00
2018-08-23T09:22:20.910Z,30.77
2018-08-23T09:24:28.302Z,27.93
2018-08-23T09:26:40.082Z,28.60
2018-08-23T09:28:44.312Z,29.63
2018-08-23T09:30:48.536Z,29.40
2018-08-23T09:32:52.780Z,26.77
2018-08-23T09:35:04.883Z,25.57
2018-08-23T09:37:09.180Z,21.87
2018-08-23T09:39:13.358Z,23.40
2018-08-23T09:41:17.614Z,25.50
2018-08-23T09:43:22.190Z,23.67
2018-08-23T09:45:26.807Z,22.63
2018-08-23T09:47:31.429Z,22.73
2018-08-23T09:49:35.564Z,21.73
2018-08-23T09:51:39.730Z,23.00
2018-08-23T09:53:43.937Z,20.43
2018-08-23T09:55:48.861Z,20.70
2018-08-23T09:57:53.033Z,21.77
2018-08-23T09:59:57.871Z,21.60
2018-08-23T10:02:07.383Z,21.03
2018-08-23T10:04:16.739Z,21.80
2018-08-23T10:06:24.035Z,22.50
2018-08-23T10:08:33.438Z,23.23
2018-08-23T10:10:42.775Z,21.47
2018-08-23T10:12:52.090Z,22.23
2018-08-23T10:15:01.461Z,21.27
2018-08-23T10:17:10.918Z,20.70
2018-08-23T10:19:20.150Z,18.33
2018-08-23T10:21:29.427Z,21.13
2018-08-23T10:23:33.622Z,19.83
2018-08-23T10:25:42.231Z,19.27
2018-08-23T10:27:46.354Z,18.03
2018-08-23T10:29:50.586Z,17.50
2018-08-23T10:31:54.790Z,17.00
2018-08-23T10:33:58.973Z,16.10
2018-08-23T10:36:03.184Z,16.00
2018-08-23T10:38:08.115Z,16.77
2018-08-23T10:40:12.327Z,15.20
2018-08-23T10:42:17.266Z,15.10
2018-08-23T10:44:21.537Z,15.90
2018-08-23T10:46:25.743Z,15.67
2018-08-23T10:48:29.975Z,15.73
2018-08-23T10:50:34.222Z,15.87
2018-08-23T10:52:38.407Z,14.87
2018-08-23T10:54:42.577Z,14.07
2018-08-23T10:56:46.797Z,14.10
2018-08-23T10:58:51.515Z,14.20
2018-08-23T11:00:58.210Z,13.50
2018-08-23T11:03:02.515Z,13.47
2018-08-23T11:05:06.754Z,14.93
2018-08-23T11:07:11.153Z,17.40
2018-08-23T11:09:20.495Z,17.97
2018-08-23T11:11:29.707Z,15.90
2018-08-23T11:13:39.163Z,18.40
2018-08-23T11:15:43.428Z,19.90
2018-08-23T11:18:52.491Z,19.67
2018-08-23T11:20:56.743Z,20.77
2018-08-23T11:23:01.004Z,21.67
2018-08-23T11:25:05.620Z,22.70
2018-08-23T11:27:10.949Z,21.73
2018-08-23T11:29:15.169Z,22.70
2018-08-23T11:31:24.623Z,23.27
2018-08-23T11:33:28.803Z,22.03
2018-08-23T11:35:33.014Z,21.07
2018-08-23T11:37:37.273Z,20.90
2018-08-23T11:39:41.450Z,20.93
2018-08-23T11:41:45.664Z,20.17
2018-08-23T11:43:49.976Z,20.40
2018-08-23T11:45:59.802Z,18.97
2018-08-23T11:48:04.053Z,19.40
2018-08-23T11:50:08.293Z,18.23
2018-08-23T11:52:12.570Z,19.50
2018-08-23T11:54:16.769Z,17.03
2018-08-23T11:56:20.973Z,18.07
2018-08-23T11:58:25.532Z,20.33
2018-08-23T12:00:29.676Z,17.83
2018-08-23T12:02:33.955Z,17.50
2018-08-23T12:04:38.091Z,19.80
2018-08-23T12:06:42.235Z,15.50
2018-08-23T12:08:46.754Z,19.73
2018-08-23T12:10:51.027Z,18.33
2018-08-23T12:12:55.491Z,16.53
2018-08-23T12:15:02.998Z,20.27
2018-08-23T12:17:07.207Z,18.43
2018-08-23T12:19:11.431Z,17.87
2018-08-23T12:21:15.700Z,18.50
2018-08-23T12:23:20.036Z,16.33
2018-08-23T12:25:24.230Z,15.67
2018-08-23T12:27:28.379Z,17.17
2018-08-23T12:29:32.651Z,14.77
2018-08-23T12:31:37.266Z,16.90
2018-08-23T12:33:41.383Z,18.87
2018-08-23T12:35:45.660Z,17.17
2018-08-23T12:38:00.635Z,18.03
2018-08-23T12:40:10.113Z,16.83
2018-08-23T12:42:19.375Z,16.30
2018-08-23T12:44:23.552Z,17.33
2018-08-23T12:46:27.801Z,15.90
2018-08-23T12:48:31.996Z,13.87
2018-08-23T12:50:36.186Z,14.03
2018-08-23T12:52:40.372Z,16.83
2018-08-23T12:54:44.598Z,15.03
2018-08-23T12:56:48.811Z,15.23
2018-08-23T12:58:53.016Z,14.43
2018-08-23T13:00:57.241Z,13.03
2018-08-23T13:03:01.560Z,14.73
2018-08-23T13:05:05.688Z,14.03
2018-08-23T13:07:09.912Z,15.23
2018-08-23T13:09:14.191Z,13.27
2018-08-23T13:11:18.386Z,18.47
2018-08-23T13:13:22.616Z,15.27
2018-08-23T13:15:26.775Z,17.73
2018-08-23T13:17:31.095Z,17.10
2018-08-23T13:19:47.323Z,16.80
2018-08-23T13:22:08.143Z,17.10
2018-08-23T13:24:12.631Z,19.83
2018-08-23T13:26:18.127Z,19.37
2018-08-23T13:28:22.383Z,19.43
2018-08-23T13:30:27.600Z,17.67
2018-08-23T13:32:31.957Z,18.00
2018-08-23T13:34:36.240Z,17.60
2018-08-23T13:36:40.491Z,18.60
2018-08-23T13:38:44.980Z,17.67
2018-08-23T13:40:49.377Z,16.40
2018-08-23T13:42:53.622Z,17.63
2018-08-23T13:44:57.977Z,18.57
2018-08-23T13:47:02.178Z,17.30
2018-08-23T13:49:06.417Z,19.03
2018-08-23T13:51:10.567Z,17.67
2018-08-23T13:53:14.770Z,15.33
2018-08-23T13:55:19.049Z,16.87
2018-08-23T13:57:23.190Z,16.70
2018-08-23T13:59:27.555Z,16.37
2018-08-23T14:01:31.760Z,16.60
2018-08-23T14:03:36.032Z,17.03
2018-08-23T14:05:41.318Z,16.30
2018-08-23T14:07:45.657Z,17.97
2018-08-23T14:09:49.791Z,15.77
2018-08-23T14:11:54.014Z,16.43
2018-08-23T14:13:58.208Z,14.30
2018-08-23T14:16:05.294Z,15.60
2018-08-23T14:18:09.599Z,17.00
2018-08-23T14:20:13.862Z,16.07
2018-08-23T14:22:18.105Z,15.17
2018-08-23T14:24:22.391Z,16.47
2018-08-23T14:26:26.642Z,14.67
2018-08-23T14:28:30.886Z,15.77
2018-08-23T14:30:35.111Z,15.43
2018-08-23T14:32:39.341Z,14.83
2018-08-23T14:34:43.589Z,15.57
2018-08-23T14:36:47.748Z,15.70
2018-08-23T14:38:51.932Z,18.43
2018-08-23T14:40:56.289Z,16.23
2018-08-23T14:43:00.590Z,17.03
2018-08-23T14:45:05.028Z,17.40
2018-08-23T14:47:14.381Z,17.57
2018-08-23T14:49:23.724Z,16.13
2018-08-23T14:51:28.071Z,16.13
2018-08-23T14:53:32.271Z,15.10
2018-08-23T14:55:41.614Z,17.27
2018-08-23T14:57:45.815Z,13.77
2018-08-23T14:59:50.016Z,15.87
2018-08-23T15:01:54.223Z,16.43
2018-08-23T15:03:58.417Z,15.80
2018-08-23T15:06:02.622Z,14.80
2018-08-23T15:08:06.803Z,15.53
2018-08-23T15:10:11.045Z,14.80
2018-08-23T15:12:15.238Z,16.77
2018-08-23T15:14:19.648Z,12.27
2018-08-23T15:16:23.730Z,14.07
2018-08-23T15:18:27.962Z,14.77
2018-08-23T15:20:32.182Z,14.43
2018-08-23T15:22:36.379Z,12.53
2018-08-23T15:24:40.651Z,12.07
2018-08-23T15:26:45.189Z,12.27
2018-08-23T15:28:49.410Z,11.47
2018-08-23T15:30:53.605Z,12.50
2018-08-23T15:32:57.780Z,12.70
2018-08-23T15:35:02.030Z,10.63
2018-08-23T15:37:06.560Z,10.30
2018-08-23T15:39:15.063Z,10.10
2018-08-23T15:41:19.280Z,10.13
2018-08-23T15:43:23.437Z,9.23
2018-08-23T15:45:27.759Z,9.83
2018-08-23T15:47:32.800Z,8.73
2018-08-23T15:49:37.118Z,9.73
2018-08-23T15:51:41.967Z,10.00
2018-08-23T15:53:46.194Z,10.97
2018-08-23T15:55:50.453Z,10.73
2018-08-23T15:57:54.559Z,11.00
2018-08-23T15:59:58.806Z,10.83
2018-08-23T16:02:03.107Z,10.70
2018-08-23T16:04:07.359Z,9.53
2018-08-23T16:06:11.575Z,8.80
2018-08-23T16:08:15.710Z,9.93
2018-08-23T16:10:20.037Z,8.90
2018-08-23T16:12:24.192Z,9.70
2018-08-23T16:14:28.350Z,8.67
2018-08-23T16:16:37.996Z,7.67
2018-08-23T16:18:47.370Z,8.37
2018-08-23T16:20:59.932Z,8.37
2018-08-23T16:23:04.229Z,8.20
2018-08-23T16:25:08.453Z,8.53
2018-08-23T16:27:12.701Z,7.83
2018-08-23T16:29:16.929Z,9.23
2018-08-23T16:31:21.229Z,9.17
2018-08-23T16:33:25.471Z,9.40
2018-08-23T16:35:29.711Z,10.50
2018-08-23T16:37:35.604Z,9.87
2018-08-23T16:39:39.781Z,9.03
2018-08-23T16:41:44.008Z,8.90
2018-08-23T16:43:48.273Z,8.17
2018-08-23T16:45:52.505Z,9.33
2018-08-23T16:47:57.089Z,8.20
2018-08-23T16:50:01.346Z,7.90
2018-08-23T16:52:05.773Z,10.13
2018-08-23T16:54:10.030Z,10.03
2018-08-23T16:56:14.839Z,10.40
2018-08-23T16:58:19.172Z,10.43
2018-08-23T17:00:23.396Z,10.33
2018-08-23T17:02:27.647Z,9.37
2018-08-23T17:04:37.051Z,10.33
2018-08-23T17:06:41.304Z,10.30
2018-08-23T17:08:45.511Z,10.97
2018-08-23T17:10:49.762Z,11.47
2018-08-23T17:12:53.997Z,9.77
2018-08-23T17:14:58.234Z,9.87
2018-08-23T17:17:07.535Z,10.47
2018-08-23T17:19:11.818Z,10.80
2018-08-23T17:21:16.046Z,10.43
2018-08-23T17:23:20.316Z,10.73
2018-08-23T17:25:24.551Z,10.03
2018-08-23T17:27:28.727Z,11.43
2018-08-23T17:29:32.951Z,11.27
2018-08-23T17:31:37.146Z,11.20
2018-08-23T17:33:41.763Z,11.87
2018-08-23T17:35:45.968Z,11.13
2018-08-23T17:37:50.110Z,13.27
2018-08-23T17:39:54.305Z,12.20
2018-08-23T17:41:58.602Z,13.63
2018-08-23T17:44:02.842Z,10.83
2018-08-23T17:46:07.041Z,12.37
2018-08-23T17:48:11.268Z,11.73
2018-08-23T17:50:15.548Z,12.33
2018-08-23T17:52:19.790Z,15.33
2018-08-23T17:54:23.984Z,15.13
2018-08-23T17:56:28.285Z,15.20
2018-08-23T17:58:32.459Z,15.27
2018-08-23T18:00:36.838Z,14.77
2018-08-23T18:02:41.020Z,13.07
2018-08-23T18:04:45.264Z,14.70
2018-08-23T18:06:49.477Z,14.53
2018-08-23T18:08:53.706Z,14.80
2018-08-23T18:10:57.964Z,13.47
2018-08-23T18:13:02.258Z,15.47
2018-08-23T18:15:09.026Z,14.37
2018-08-23T18:17:13.226Z,14.47
2018-08-23T18:19:17.586Z,14.47
2018-08-23T18:21:21.859Z,15.53
2018-08-23T18:23:26.506Z,16.60
2018-08-23T18:25:31.021Z,15.67
2018-08-23T18:27:35.291Z,12.63
2018-08-23T18:29:39.447Z,15.10
2018-08-23T18:31:44.510Z,15.47
2018-08-23T18:33:48.791Z,13.20
2018-08-23T18:35:52.969Z,13.47
2018-08-23T18:37:57.163Z,14.13
2018-08-23T18:40:01.333Z,12.73
2018-08-23T18:42:05.574Z,12.60
2018-08-23T18:44:09.768Z,13.77
2018-08-23T18:46:14.022Z,11.43
2018-08-23T18:48:18.237Z,13.20
2018-08-23T18:50:22.474Z,13.37
2018-08-23T18:52:26.883Z,12.20
2018-08-23T18:54:31.069Z,12.67
2018-08-23T18:56:35.396Z,11.83
2018-08-23T18:58:39.624Z,11.93
2018-08-23T19:00:43.732Z,10.63
2018-08-23T19:02:47.963Z,10.07
2018-08-23T19:04:53.039Z,9.60
2018-08-23T19:06:57.262Z,8.93
2018-08-23T19:09:01.431Z,9.23
2018-08-23T19:11:06.105Z,7.70
2018-08-23T19:13:10.363Z,7.83
2018-08-23T19:15:14.627Z,8.40
2018-08-23T19:17:23.939Z,8.20
2018-08-23T19:19:28.127Z,8.70
2018-08-23T19:21:32.387Z,7.70
2018-08-23T19:23:36.630Z,8.20
2018-08-23T19:25:40.790Z,7.63
2018-08-23T19:27:44.974Z,7.17
2018-08-23T19:29:49.354Z,8.03
2018-08-23T19:31:53.582Z,7.40
2018-08-23T19:33:57.828Z,7.80
2018-08-23T19:36:02.003Z,8.13
2018-08-23T19:38:06.215Z,8.67
2018-08-23T19:40:10.478Z,6.97
2018-08-23T19:42:14.657Z,7.63
2018-08-23T19:44:19.263Z,6.73
2018-08-23T19:46:28.747Z,5.93
2018-08-23T19:48:33.215Z,5.67
2018-08-23T19:50:37.452Z,5.50
2018-08-23T19:52:41.634Z,6.77
2018-08-23T19:54:45.839Z,7.30
2018-08-23T19:56:53.183Z,8.30
2018-08-23T19:58:57.526Z,7.57
2018-08-23T20:01:01.788Z,6.83
2018-08-23T20:03:06.459Z,6.67
2018-08-23T20:05:11.561Z,7.33
2018-08-23T20:07:16.390Z,7.33
2018-08-23T20:09:20.640Z,7.90
2018-08-23T20:11:24.886Z,7.73
2018-08-23T20:13:29.167Z,9.00
2018-08-23T20:15:33.411Z,7.37
2018-08-23T20:17:37.682Z,10.13
2018-08-23T20:19:41.942Z,8.83
2018-08-23T20:21:46.182Z,9.00
2018-08-23T20:23:51.479Z,9.37
2018-08-23T20:25:55.690Z,10.87
2018-08-23T20:28:00.029Z,10.20
2018-08-23T20:30:04.395Z,11.83
2018-08-23T20:32:08.623Z,10.20
2018-08-23T20:34:12.822Z,9.53
2018-08-23T20:36:16.983Z,10.90
2018-08-23T20:38:21.192Z,9.27
2018-08-23T20:40:25.311Z,11.00
2018-08-23T20:42:29.998Z,11.27
2018-08-23T20:44:34.191Z,10.80
2018-08-23T20:46:38.824Z,10.20
2018-08-23T20:48:43.071Z,8.83
2018-08-23T20:50:47.244Z,9.33
2018-08-23T20:52:51.641Z,8.23
2018-08-23T20:54:55.770Z,8.90
2018-08-23T20:56:59.960Z,10.70
2018-08-23T20:59:04.173Z,11.27
2018-08-23T21:01:10.180Z,11.83
2018-08-23T21:03:14.514Z,12.53
2018-08-23T21:05:19.083Z,11.90
2018-08-23T21:07:23.437Z,12.00
2018-08-23T21:09:32.865Z,12.93
2018-08-23T21:11:37.512Z,14.37
2018-08-23T21:13:41.709Z,14.03
2018-08-23T21:15:45.913Z,13.07
2018-08-23T21:17:50.203Z,14.23
2018-08-23T21:19:54.527Z,11.80
2018-08-23T21:21:59.050Z,12.80
2018-08-23T21:24:03.219Z,13.47
2018-08-23T21:26:07.492Z,13.43
2018-08-23T21:28:11.799Z,13.63
2018-08-23T21:30:16.118Z,14.17
2018-08-23T21:32:20.311Z,15.80
2018-08-23T21:34:24.611Z,16.40
2018-08-23T21:36:29.325Z,13.63
2018-08-23T21:38:33.515Z,15.87
2018-08-23T21:40:37.746Z,15.87
2018-08-23T21:42:41.916Z,16.17
2018-08-23T21:44:46.067Z,16.53
2018-08-23T21:46:50.376Z,15.80
2018-08-23T21:48:54.547Z,13.13
2018-08-23T21:50:58.762Z,16.80
2018-08-23T21:53:03.026Z,14.87
2018-08-23T21:55:07.236Z,15.30
2018-08-23T21:57:11.515Z,11.67
2018-08-23T21:59:15.763Z,12.97
2018-08-23T22:01:19.861Z,10.50
2018-08-23T22:03:24.424Z,8.87
2018-08-23T22:05:28.659Z,11.17
2018-08-23T22:07:32.829Z,6.97
2018-08-23T22:09:37.095Z,13.60
2018-08-23T22:11:42.210Z,13.37
2018-08-23T22:13:46.391Z,9.97
2018-08-23T22:15:50.678Z,5.07
2018-08-23T22:17:55.077Z,4.10
2018-08-23T22:19:59.353Z,3.90
2018-08-23T22:22:03.509Z,1.87
2018-08-23T22:24:07.776Z,1.83
2018-08-23T22:26:12.026Z,1.47
2018-08-23T22:28:16.290Z,1.50
2018-08-23T22:30:20.869Z,1.73
2018-08-23T22:32:25.086Z,1.40
2018-08-23T22:34:29.312Z,1.67
2018-08-23T22:36:33.509Z,2.67
2018-08-23T22:38:37.669Z,1.87
2018-08-23T22:40:41.912Z,3.20
2018-08-23T22:42:46.106Z,1.50
2018-08-23T22:44:50.351Z,1.83
2018-08-23T22:46:54.644Z,2.30
2018-08-23T22:48:58.859Z,2.33
2018-08-23T22:51:03.100Z,2.17
2018-08-23T22:53:07.366Z,2.30
2018-08-23T22:55:11.575Z,2.77
2018-08-23T22:57:15.855Z,2.40
2018-08-23T22:59:20.102Z,2.60
2018-08-23T23:01:24.286Z,2.60
2018-08-23T23:03:33.664Z,2.83
2018-08-23T23:05:37.879Z,2.90
2018-08-23T23:07:42.078Z,3.00
2018-08-23T23:09:46.270Z,2.47
2018-08-23T23:11:50.528Z,3.17
2018-08-23T23:13:54.766Z,2.80
2018-08-23T23:15:58.958Z,3.20
2018-08-23T23:18:03.207Z,2.73
2018-08-23T23:20:07.882Z,2.73
2018-08-23T23:22:12.067Z,3.57
2018-08-23T23:24:21.337Z,3.20
2018-08-23T23:26:25.606Z,2.87
2018-08-23T23:28:29.810Z,3.50
2018-08-23T23:30:34.408Z,3.33
2018-08-23T23:32:38.544Z,2.80
2018-08-23T23:34:42.737Z,3.30
2018-08-23T23:36:47.045Z,3.13
2018-08-23T23:38:51.263Z,2.90
2018-08-23T23:40:55.591Z,3.53
2018-08-23T23:42:59.840Z,3.10
2018-08-23T23:45:04.019Z,3.70
2018-08-23T23:47:08.651Z,3.40
2018-08-23T23:49:12.963Z,3.50
2018-08-23T23:51:17.134Z,3.20
2018-08-23T23:53:21.358Z,3.40
2018-08-23T23:55:25.838Z,3.23
2018-08-23T23:57:30.338Z,2.90
2018-08-23T23:59:34.577Z,2.97
